Share

Anabel, MO

8:06 PM CDT on April 23, 2014 (GMT -0500)
KMOMOBER2 Elev 853 ft | 39.46 °N, 92.40 °W | Change Station

Current weather conditions updated 5 minutes ago

Clear
Clear
58.4 °F
Feels Like 58.4 °F
N
16.0
Wind Variable Wind from ESE
Gusts 21.0 mph
Sunrise 6:20 AM
Sunset 7:55 PM
Moon Waning Crescent

Tomorrow is forecast to be nearly the same temperature as today. Rain with a few rumbles of thunder.

Pressure 29.87 in
Visibility 10.0 miles
Clouds Clear
Dew Point 39 °F
Humidity 49%
Rainfall 0.00 in
Snow Depth Not available.
UV 0 out of 16
Pollen 10.20 out of 12
Air Quality Not available.
Flu Activity Sporadic
METAR KIRK 240055Z AUTO 12018G24KT 10SM CLR 14/02 A2985 RMK AO2 SLP113 T01390022

More Conditions Fewer Conditions

Pressure 29.87 in
Visibility 10.0 miles
Clouds Clear
Dew Point 39 °F
Humidity 49%
Rainfall 0.00 in
Snow Depth Not available.
UV 0 out of 16
Pollen 10.20 out of 12
Air Quality Not available.
Flu Activity Sporadic
METAR KIRK 240055Z AUTO 12018G24KT 10SM CLR 14/02 A2985 RMK AO2 SLP113 T01390022

More Conditions Fewer Conditions

10-Day Weather Forecast

Almanac

Astronomy

Apr. 23, 2014 Rise Set
Actual Time 6:20 AM CDT 7:55 PM CDT
Civil Twilight 5:51 AM CDT 8:24 PM CDT
Nautical Twilight 5:17 AM CDT 8:58 PM CDT
Astronomical Twilight 4:41 AM CDT 9:35 PM CDT
Moon 2:51 AM CDT (4/23) 2:05 PM CDT (4/23)
Length of Visible Light 14h 32m
Length of Day
13h 35m
Tomorrow will be 2m 23s longer.
Waning Crescent, 31% of the Moon is Illuminated
Today
Waning Crescent
Apr 29
New
May 6
First Quarter
May 14
Full
May 21
Last Quarter

Today's Extremes

State Highs State Lows

Community

  • Nestled In
    Nestled In
  • Stunning Sunrise
    Stunning Sunrise
  • spring flowers
    spring flowers
  • Earth Day Spectrum Ove' Blue
    Earth Day Spectrum Ove' Blue
  • BARN B&W
    BARN B&W

WunderPhotos

Upload Photos

1,704,482 photos uploaded!

Nearby

Snow Depth

Station Depth Elevation
No new snow has been reported.

Coastal Water Temperatures

Place Temperature
No Stations Reporting

Earthquake Activity

City Distance Mag. Time & Date
No recent earthquake activity has been reported nearby.
Minimum magnitude displayed is 2.5.

Nearby Weather Stations

Station Location Temp. Dew Point Humidity Wind Precip. Elev Updated Type
Moberly, MO 58.4 °F 39 °F 49% ESE  at  16.0 mph 0.00 in / hr 853 ft 8:00 PM CDT Normal
East 24, Moberly, MO 58.1 °F 36 °F 44% ESE  at  3.4 mph 0.00 in / hr 856 ft 8:06 PM CDT Rapid Fire
La Plata, La Plata, MO 57.0 °F 39 °F 50% SE  at  8.3 mph 0.00 in / hr 928 ft 8:06 PM CDT Rapid Fire

Show More Stations Show Fewer Stations

What do you think?

We're not finished. Please let us know what you like, what you don't like, and what you are still missing.